Main page
METAR-TAF:

METAR-TAF

Airports :

Lampang Airport

Lampang, Thailand

latitude: 18-17N, longitude: 099-31E, elevation: 241 m

Current weather observation

The report was made 4 hours and 46 minutes ago, at 14:00 UTC
Wind 2 kt from the Southeast
Temperature 21°C
Humidity 73%
Pressure 1014 hPa
Visibility: 8000 m

METAR: VTCL 171400Z 13002KT 8000 NSC 21/16 Q1014 NOSIG

Time: 01:46 (18:46 UTC)

Forecast

The report was made 1 hour and 46 minutes ago, at 17:00 UTC
Forecast valid from 17 at 18 UTC to 18 at 18 UTC
Wind 2 kt from variable directions
Visibility: 8000 m
Becoming
from 17 at 22 UTC to 17 at 24 UTC
Visibility: 4000 m
mist
Becoming
from 18 at 06 UTC to 18 at 08 UTC
Visibility: 7000 m

TAF: VTCL 171700Z 1718/1818 VRB02KT 8000 NSC BECMG 1722/1724 4000 BR BECMG 1806/1808 7000 NSW

Weather observations and forecasts of more than 4000 airports (METAR and TAF reports).

The available stations are represented by yellow and red dots on the map.

Hover mouse over dot to see the name of the station.

Then click to see weather observations and forecasts.

To change the map : click on the green buttons with a black cross to zoom in, on the green button with a dash to zoom out, or on the green arrows for adjacent maps.


METAR-TAF: